createdAt,value
2023-02-27T00:01:36.412Z,98628.56
2023-02-27T00:04:03.443Z,98624.69
2023-02-27T00:06:34.070Z,98629.47
2023-02-27T00:09:04.356Z,98630.56
2023-02-27T00:11:31.404Z,98626.44
2023-02-27T00:14:03.357Z,98628.72
2023-02-27T00:16:32.365Z,98626.41
2023-02-27T00:19:01.356Z,98621.84
2023-02-27T00:21:28.365Z,98633.34
2023-02-27T00:23:55.555Z,98634.13
2023-02-27T00:26:32.816Z,98628.88
2023-02-27T00:28:59.829Z,98634.31
2023-02-27T00:31:27.036Z,98635.19
2023-02-27T00:33:54.312Z,98629.94
2023-02-27T00:36:21.347Z,98630.94
2023-02-27T00:38:48.253Z,98640.34
2023-02-27T00:41:15.820Z,98651.28
2023-02-27T00:43:47.242Z,98645.03
2023-02-27T00:46:14.346Z,98646.13
2023-02-27T00:48:41.318Z,98653.50
2023-02-27T00:51:10.038Z,98654.69
2023-02-27T00:53:36.862Z,98648.69
2023-02-27T00:56:03.840Z,98644.28
2023-02-27T00:58:30.733Z,98650.13
2023-02-27T01:00:59.908Z,98644.88
2023-02-27T01:03:28.851Z,98642.31
2023-02-27T01:05:55.801Z,98649.66
2023-02-27T01:08:26.986Z,98634.69
2023-02-27T01:10:56.723Z,98644.44
2023-02-27T01:13:23.654Z,98636.34
2023-02-27T01:15:50.874Z,98635.06
2023-02-27T01:18:17.944Z,98641.19
2023-02-27T01:20:44.904Z,98632.44
2023-02-27T01:23:13.304Z,98647.41
2023-02-27T01:25:40.439Z,98646.69
2023-02-27T01:28:09.993Z,98647.94
2023-02-27T01:30:37.011Z,98636.88
2023-02-27T01:33:04.449Z,98646.78
2023-02-27T01:35:31.389Z,98651.44
2023-02-27T01:38:00.143Z,98652.16
2023-02-27T01:40:41.778Z,98652.50
2023-02-27T01:43:15.208Z,98666.22
2023-02-27T01:45:44.274Z,98661.13
2023-02-27T01:48:26.098Z,98661.78
2023-02-27T01:50:58.996Z,98652.75
2023-02-27T01:53:28.844Z,98649.78
2023-02-27T01:56:00.901Z,98663.75
2023-02-27T01:58:27.937Z,98662.56
2023-02-27T02:00:56.359Z,98665.97
2023-02-27T02:03:27.145Z,98671.59
2023-02-27T02:06:07.530Z,98673.47
2023-02-27T02:08:42.104Z,98671.50
2023-02-27T02:11:10.760Z,98670.00
2023-02-27T02:13:40.623Z,98676.56
2023-02-27T02:16:20.397Z,98680.25
2023-02-27T02:19:08.685Z,98687.25
2023-02-27T02:22:05.187Z,98691.41
2023-02-27T02:24:51.738Z,98685.72
2023-02-27T02:27:19.148Z,98695.28
2023-02-27T02:30:17.841Z,98691.72
2023-02-27T02:33:05.881Z,98700.59
2023-02-27T02:35:48.937Z,98692.94
2023-02-27T02:38:57.150Z,98694.34
2023-02-27T02:41:50.715Z,98690.25
2023-02-27T02:44:46.789Z,98696.78
2023-02-27T02:47:32.561Z,98703.09
2023-02-27T02:50:08.487Z,98704.69
2023-02-27T02:52:44.654Z,98697.81
2023-02-27T02:55:32.270Z,98698.41
2023-02-27T02:58:09.716Z,98701.34
2023-02-27T03:00:44.701Z,98710.38
2023-02-27T03:03:29.302Z,98718.25
2023-02-27T03:06:02.429Z,98713.50
2023-02-27T03:08:49.542Z,98719.09
2023-02-27T03:11:16.477Z,98719.91
2023-02-27T03:13:56.198Z,98727.78
2023-02-27T03:16:43.794Z,98721.25
2023-02-27T03:19:17.654Z,98725.16
2023-02-27T03:21:55.692Z,98725.72
2023-02-27T03:24:51.311Z,98731.31
2023-02-27T03:27:19.954Z,98729.94
2023-02-27T03:29:57.541Z,98729.13
2023-02-27T03:32:38.079Z,98723.28
2023-02-27T03:35:10.965Z,98731.97
2023-02-27T03:37:49.899Z,98729.41
2023-02-27T03:40:31.302Z,98738.34
2023-02-27T03:43:07.215Z,98742.53
2023-02-27T03:46:13.362Z,98738.28
2023-02-27T03:48:44.867Z,98740.66
2023-02-27T03:51:14.931Z,98743.91
2023-02-27T03:54:35.019Z,98745.00
2023-02-27T03:57:08.624Z,98748.59
2023-02-27T03:59:38.128Z,98743.69
2023-02-27T04:02:05.307Z,98742.09
2023-02-27T04:04:36.330Z,98728.84
2023-02-27T04:07:30.358Z,98737.16
2023-02-27T04:10:38.834Z,98750.84
2023-02-27T04:13:33.100Z,98752.19
2023-02-27T04:16:07.188Z,98748.84
2023-02-27T04:19:05.398Z,98748.56
2023-02-27T04:21:42.260Z,98751.91
2023-02-27T04:24:30.781Z,98756.97
2023-02-27T04:27:11.706Z,98766.81
2023-02-27T04:30:46.635Z,98767.66
2023-02-27T04:33:37.030Z,98768.34
2023-02-27T04:36:12.964Z,98766.41
2023-02-27T04:38:47.601Z,98759.09
2023-02-27T04:41:23.727Z,98763.97
2023-02-27T04:43:53.712Z,98758.38
2023-02-27T04:46:24.706Z,98762.50
2023-02-27T04:48:59.201Z,98763.41
2023-02-27T04:51:42.849Z,98760.69
2023-02-27T04:54:18.512Z,98757.16
2023-02-27T04:56:52.772Z,98753.38
2023-02-27T04:59:26.128Z,98759.22
2023-02-27T05:02:12.900Z,98759.88
2023-02-27T05:04:44.066Z,98758.06
2023-02-27T05:07:17.784Z,98764.94
2023-02-27T05:09:55.376Z,98765.69
2023-02-27T05:13:20.068Z,98771.72
2023-02-27T05:16:14.523Z,98774.50
2023-02-27T05:18:56.082Z,98766.72
2023-02-27T05:21:41.419Z,98769.44
2023-02-27T05:24:32.628Z,98773.13
2023-02-27T05:27:05.408Z,98772.78
2023-02-27T05:29:50.754Z,98777.38
2023-02-27T05:32:29.952Z,98787.03
2023-02-27T05:35:00.039Z,98782.94
2023-02-27T05:37:57.362Z,98782.88
2023-02-27T05:40:35.283Z,98788.53
2023-02-27T05:43:09.161Z,98794.78
2023-02-27T05:45:50.140Z,98800.97
2023-02-27T05:48:37.848Z,98799.31
2023-02-27T05:51:07.980Z,98806.34
2023-02-27T05:53:42.331Z,98798.78
2023-02-27T05:56:14.072Z,98802.16
2023-02-27T05:59:08.444Z,98808.81
2023-02-27T06:01:35.660Z,98817.16
2023-02-27T06:04:07.916Z,98815.38
2023-02-27T06:06:37.740Z,98819.31
2023-02-27T06:09:18.573Z,98817.97
2023-02-27T06:15:19.524Z,98825.91
2023-02-27T06:18:19.724Z,98832.47
2023-02-27T06:20:47.385Z,98833.88
2023-02-27T06:23:14.413Z,98843.19
2023-02-27T06:25:44.521Z,98845.09
2023-02-27T06:28:14.361Z,98852.88
2023-02-27T06:30:41.398Z,98846.28
2023-02-27T06:33:09.374Z,98858.28
2023-02-27T06:35:38.558Z,98851.66
2023-02-27T06:38:05.340Z,98850.91
2023-02-27T06:40:32.915Z,98854.78
2023-02-27T06:42:59.930Z,98856.72
2023-02-27T06:45:26.735Z,98862.38
2023-02-27T06:47:59.924Z,98861.75
2023-02-27T06:50:28.653Z,98861.59
2023-02-27T06:52:57.030Z,98857.31
2023-02-27T06:55:28.847Z,98861.63
2023-02-27T06:57:56.304Z,98854.75
2023-02-27T07:00:24.638Z,98869.06
2023-02-27T07:03:04.632Z,98865.03
2023-02-27T07:05:32.783Z,98868.84
2023-02-27T07:08:06.643Z,98874.88
2023-02-27T07:10:35.900Z,98865.47
2023-02-27T07:13:09.056Z,98875.09
2023-02-27T07:15:38.301Z,98881.53
2023-02-27T07:18:06.258Z,98885.34
2023-02-27T07:23:44.615Z,98892.56
2023-02-27T07:26:11.740Z,98891.19
2023-02-27T07:28:38.631Z,98894.06
2023-02-27T07:31:05.737Z,98895.09
2023-02-27T07:33:34.344Z,98881.81
2023-02-27T07:36:08.584Z,98895.38
2023-02-27T07:38:35.566Z,98892.44
2023-02-27T07:41:04.392Z,98893.13
2023-02-27T07:43:33.513Z,98904.13
2023-02-27T07:46:00.633Z,98901.38
2023-02-27T07:48:27.628Z,98900.16
2023-02-27T07:50:57.515Z,98909.66
2023-02-27T07:53:24.664Z,98907.41
2023-02-27T07:55:52.507Z,98895.22
2023-02-27T07:58:20.063Z,98905.75
2023-02-27T08:00:47.004Z,98906.59
2023-02-27T08:03:13.960Z,98906.59
2023-02-27T08:05:40.854Z,98909.22
2023-02-27T08:08:07.792Z,98902.44
2023-02-27T08:10:35.382Z,98907.44
2023-02-27T08:13:02.560Z,98908.16
2023-02-27T08:15:29.810Z,98906.81
2023-02-27T08:17:56.797Z,98908.06
2023-02-27T08:20:24.791Z,98904.25
2023-02-27T08:22:52.959Z,98892.59
2023-02-27T08:25:21.589Z,98905.38
2023-02-27T08:27:48.567Z,98897.44
2023-02-27T08:30:17.269Z,98897.41
2023-02-27T08:32:45.634Z,98891.72
2023-02-27T08:35:12.906Z,98897.88
2023-02-27T08:37:42.545Z,98902.75
2023-02-27T08:40:11.526Z,98896.69
2023-02-27T08:42:38.722Z,98910.28
2023-02-27T08:45:08.509Z,98898.50
2023-02-27T08:47:38.640Z,98901.38
2023-02-27T08:50:07.504Z,98901.72
2023-02-27T08:52:35.499Z,98906.19
2023-02-27T08:55:07.028Z,98907.09
2023-02-27T08:57:34.018Z,98901.19
2023-02-27T09:00:01.475Z,98898.19
2023-02-27T09:02:29.141Z,98907.47
2023-02-27T09:05:01.190Z,98916.78
2023-02-27T09:07:31.646Z,98919.81
2023-02-27T09:09:58.605Z,98919.31
2023-02-27T09:12:25.508Z,98920.28
2023-02-27T09:14:52.512Z,98929.63
2023-02-27T09:17:19.372Z,98922.50
2023-02-27T09:19:46.471Z,98918.50
2023-02-27T09:22:18.360Z,98913.50
2023-02-27T09:24:51.486Z,98921.66
2023-02-27T09:27:24.173Z,98919.91
2023-02-27T09:29:57.998Z,98926.06
2023-02-27T09:32:27.473Z,98921.41
2023-02-27T09:34:56.907Z,98920.75
2023-02-27T09:37:30.020Z,98925.47
2023-02-27T09:39:57.109Z,98923.63
2023-02-27T09:42:26.383Z,98920.59
2023-02-27T09:45:05.778Z,98921.38
2023-02-27T09:47:40.906Z,98919.66
2023-02-27T09:50:40.312Z,98930.31
2023-02-27T09:53:16.975Z,98920.16
2023-02-27T09:55:46.130Z,98926.31
2023-02-27T09:58:45.842Z,98930.22
2023-02-27T10:01:28.806Z,98926.16
2023-02-27T10:04:19.461Z,98926.72
2023-02-27T10:06:49.918Z,98927.44
2023-02-27T10:09:45.608Z,98926.16
2023-02-27T10:12:34.601Z,98930.56
2023-02-27T10:15:11.057Z,98936.94
2023-02-27T10:18:16.871Z,98928.94
2023-02-27T10:20:56.492Z,98923.00
2023-02-27T10:23:54.061Z,98927.50
2023-02-27T10:26:28.252Z,98920.47
2023-02-27T10:29:03.067Z,98933.06
2023-02-27T10:31:34.520Z,98922.91
2023-02-27T10:34:02.302Z,98931.16
2023-02-27T10:36:34.246Z,98932.81
2023-02-27T10:39:06.938Z,98929.88
2023-02-27T10:41:38.099Z,98931.97
2023-02-27T10:44:06.610Z,98926.13
2023-02-27T10:46:38.228Z,98942.50
2023-02-27T10:49:15.321Z,98935.69
2023-02-27T10:51:44.602Z,98930.81
2023-02-27T10:54:25.929Z,98926.88
2023-02-27T10:56:55.846Z,98922.78
2023-02-27T10:59:24.512Z,98926.38
2023-02-27T11:01:55.601Z,98920.00
2023-02-27T11:04:35.484Z,98930.31
2023-02-27T11:07:10.646Z,98926.78
2023-02-27T11:09:38.045Z,98934.66
2023-02-27T11:12:26.314Z,98931.31
2023-02-27T11:14:57.018Z,98929.97
2023-02-27T11:17:30.290Z,98928.50
2023-02-27T11:20:01.351Z,98931.84
2023-02-27T11:22:31.291Z,98934.06
2023-02-27T11:25:25.812Z,98931.91
2023-02-27T11:28:11.731Z,98931.28
2023-02-27T11:30:38.732Z,98934.56
2023-02-27T11:33:18.906Z,98933.38
2023-02-27T11:35:57.177Z,98933.13
2023-02-27T11:38:30.514Z,98932.97
2023-02-27T11:40:59.075Z,98932.75
2023-02-27T11:43:33.613Z,98915.78
2023-02-27T11:46:47.894Z,98927.31
2023-02-27T11:49:02.575Z,98920.50
2023-02-27T11:51:51.008Z,98910.47
2023-02-27T11:54:26.509Z,98908.28
2023-02-27T11:57:14.712Z,98908.63
2023-02-27T12:00:02.291Z,98908.72
2023-02-27T12:02:53.001Z,98905.06
2023-02-27T12:05:28.415Z,98909.25
2023-02-27T12:08:02.023Z,98916.00
2023-02-27T12:10:46.370Z,98913.13
2023-02-27T12:13:21.797Z,98900.84
2023-02-27T12:16:09.658Z,98916.84
2023-02-27T12:18:53.849Z,98903.78
2023-02-27T12:21:28.700Z,98905.09
2023-02-27T12:24:08.558Z,98911.34
2023-02-27T12:26:42.542Z,98904.50
2023-02-27T12:29:23.611Z,98906.81
2023-02-27T12:31:58.766Z,98904.44
2023-02-27T12:34:38.468Z,98908.91
2023-02-27T12:37:11.686Z,98906.13
2023-02-27T12:39:40.396Z,98907.53
2023-02-27T12:42:18.412Z,98902.84
2023-02-27T12:45:03.281Z,98896.78
2023-02-27T12:48:00.570Z,98894.75
2023-02-27T12:50:43.023Z,98892.03
2023-02-27T12:53:43.008Z,98897.81
2023-02-27T12:56:17.366Z,98885.78
2023-02-27T12:59:09.939Z,98894.97
2023-02-27T13:02:22.002Z,98892.91
2023-02-27T13:05:09.666Z,98888.72
2023-02-27T13:08:06.833Z,98882.78
2023-02-27T13:10:50.481Z,98889.91
2023-02-27T13:13:34.642Z,98889.13
2023-02-27T13:16:44.781Z,98897.16
2023-02-27T13:19:19.608Z,98897.81
2023-02-27T13:21:55.208Z,98886.19
2023-02-27T13:24:26.779Z,98894.50
2023-02-27T13:27:19.497Z,98892.13
2023-02-27T13:30:08.407Z,98897.66
2023-02-27T13:32:49.192Z,98889.00
2023-02-27T13:35:46.690Z,98894.09
2023-02-27T13:38:43.498Z,98893.13
2023-02-27T13:41:36.230Z,98887.03
2023-02-27T13:44:21.739Z,98893.53
2023-02-27T13:46:53.769Z,98889.78
2023-02-27T13:49:29.554Z,98888.81
2023-02-27T13:52:02.170Z,98891.47
2023-02-27T13:54:35.700Z,98886.00
2023-02-27T13:57:14.289Z,98891.56
2023-02-27T13:59:44.583Z,98893.75
2023-02-27T14:02:11.544Z,98900.63
2023-02-27T14:04:51.527Z,98898.34
2023-02-27T14:07:24.401Z,98905.09
2023-02-27T14:10:18.605Z,98909.03
2023-02-27T14:12:46.743Z,98911.91
2023-02-27T14:15:29.126Z,98918.81
2023-02-27T14:18:12.404Z,98914.75
2023-02-27T14:20:42.366Z,98921.06
2023-02-27T14:23:15.478Z,98919.97
2023-02-27T14:26:18.925Z,98919.00
2023-02-27T14:28:57.080Z,98918.53
2023-02-27T14:31:31.351Z,98917.91
2023-02-27T14:34:06.028Z,98916.31
2023-02-27T14:36:40.949Z,98913.47
2023-02-27T14:39:40.716Z,98922.00
2023-02-27T14:42:56.128Z,98922.91
2023-02-27T14:45:31.300Z,98931.81
2023-02-27T14:48:00.609Z,98930.78
2023-02-27T14:50:40.498Z,98927.50
2023-02-27T14:53:22.545Z,98938.38
2023-02-27T14:56:05.358Z,98925.94
2023-02-27T14:58:32.674Z,98937.38
2023-02-27T15:01:04.640Z,98931.28
2023-02-27T15:03:57.900Z,98935.97
2023-02-27T15:06:40.906Z,98935.63
2023-02-27T15:09:08.335Z,98940.59
2023-02-27T15:11:42.026Z,98938.56
2023-02-27T15:14:21.301Z,98938.00
2023-02-27T15:16:48.178Z,98936.59
2023-02-27T15:19:19.316Z,98941.41
2023-02-27T15:21:51.907Z,98937.59
2023-02-27T15:24:31.412Z,98945.88
2023-02-27T15:27:08.633Z,98949.78
2023-02-27T15:29:45.844Z,98943.75
2023-02-27T15:32:21.550Z,98943.06
2023-02-27T15:34:51.766Z,98944.25
2023-02-27T15:37:38.472Z,98950.13
2023-02-27T15:40:09.980Z,98947.88
2023-02-27T15:42:37.493Z,98958.34
2023-02-27T15:45:07.180Z,98948.25
2023-02-27T15:47:34.530Z,98947.94
2023-02-27T15:50:11.239Z,98947.84
2023-02-27T15:52:54.313Z,98954.28
2023-02-27T15:55:45.374Z,98946.91
2023-02-27T15:58:33.051Z,98963.69
2023-02-27T16:01:09.765Z,98960.75
2023-02-27T16:03:43.441Z,98958.06
2023-02-27T16:06:16.062Z,98964.47
2023-02-27T16:08:54.603Z,98982.53
2023-02-27T16:11:23.981Z,98972.88
2023-02-27T16:13:52.224Z,98976.09
2023-02-27T16:16:22.395Z,98980.91
2023-02-27T16:18:52.051Z,98971.91
2023-02-27T16:21:28.819Z,98988.41
2023-02-27T16:24:22.006Z,98979.19
2023-02-27T16:26:57.660Z,98993.34
2023-02-27T16:29:34.711Z,98980.28
2023-02-27T16:32:02.621Z,98992.25
2023-02-27T16:35:08.695Z,98992.88
2023-02-27T16:37:41.369Z,98998.16
2023-02-27T16:40:18.713Z,98999.50
2023-02-27T16:42:46.731Z,99005.28
2023-02-27T16:45:16.593Z,99003.28
2023-02-27T16:47:46.057Z,99014.63
2023-02-27T16:50:36.640Z,98994.50
2023-02-27T16:53:03.874Z,99007.34
2023-02-27T16:55:33.410Z,98998.88
2023-02-27T16:58:01.230Z,99010.84
2023-02-27T17:00:29.489Z,99015.91
2023-02-27T17:02:59.056Z,99021.34
2023-02-27T17:05:27.912Z,99016.03
2023-02-27T17:07:55.963Z,99016.44
2023-02-27T17:10:25.482Z,99018.63
2023-02-27T17:12:53.441Z,99019.78
2023-02-27T17:15:23.341Z,99019.34
2023-02-27T17:17:50.255Z,99027.16
2023-02-27T17:20:21.741Z,99024.38
2023-02-27T17:22:50.680Z,99025.59
2023-02-27T17:25:18.143Z,99035.06
2023-02-27T17:27:45.364Z,99031.50
2023-02-27T17:30:14.677Z,99036.75
2023-02-27T17:32:41.584Z,99037.81
2023-02-27T17:35:09.824Z,99034.84
2023-02-27T17:37:42.273Z,99044.78
2023-02-27T17:40:12.733Z,99049.06
2023-02-27T17:42:40.161Z,99048.63
2023-02-27T17:45:08.375Z,99049.63
2023-02-27T17:47:36.065Z,99053.03
2023-02-27T17:50:04.205Z,99050.56
2023-02-27T17:52:31.187Z,99060.06
2023-02-27T17:54:58.153Z,99062.56
2023-02-27T17:57:24.892Z,99051.06
2023-02-27T17:59:51.977Z,99052.25
2023-02-27T18:02:20.310Z,99063.63
2023-02-27T18:04:47.700Z,99066.19
2023-02-27T18:07:14.953Z,99063.50
2023-02-27T18:09:41.707Z,99068.38
2023-02-27T18:12:08.561Z,99071.06
2023-02-27T18:14:37.025Z,99076.25
2023-02-27T18:17:11.884Z,99069.03
2023-02-27T18:19:41.730Z,99072.50
2023-02-27T18:22:12.269Z,99075.41
2023-02-27T18:24:40.891Z,99079.28
2023-02-27T18:27:08.331Z,99070.34
2023-02-27T18:29:36.519Z,99078.88
2023-02-27T18:32:03.482Z,99079.28
2023-02-27T18:34:30.539Z,99079.97
2023-02-27T18:36:58.319Z,99079.84
2023-02-27T18:39:25.575Z,99074.84
2023-02-27T18:41:52.965Z,99086.03
2023-02-27T18:44:22.502Z,99076.81
2023-02-27T18:46:53.373Z,99089.91
2023-02-27T18:49:20.378Z,99089.38
2023-02-27T18:51:47.625Z,99087.16
2023-02-27T18:54:15.004Z,99090.34
2023-02-27T18:56:41.964Z,99093.84
2023-02-27T18:59:08.791Z,99094.03
2023-02-27T19:01:38.854Z,99096.41
2023-02-27T19:04:08.200Z,99099.34
2023-02-27T19:06:43.343Z,99097.66
2023-02-27T19:09:19.909Z,99103.34
2023-02-27T19:11:49.550Z,99098.75
2023-02-27T19:14:17.316Z,99094.38
2023-02-27T19:16:46.830Z,99103.09
2023-02-27T19:19:13.663Z,99097.97
2023-02-27T19:21:41.251Z,99101.47
2023-02-27T19:24:11.065Z,99099.50
2023-02-27T19:26:38.612Z,99102.13
2023-02-27T19:29:07.298Z,99099.34
2023-02-27T19:31:34.460Z,99106.56
2023-02-27T19:34:01.996Z,99104.16
2023-02-27T19:36:30.818Z,99111.50
2023-02-27T19:38:58.664Z,99108.09
2023-02-27T19:41:26.472Z,99109.53
2023-02-27T19:43:54.574Z,99109.16
2023-02-27T19:46:27.916Z,99114.47
2023-02-27T19:48:58.097Z,99106.19
2023-02-27T19:51:31.390Z,99116.50
2023-02-27T19:53:59.493Z,99115.59
2023-02-27T19:56:28.616Z,99108.81
2023-02-27T19:58:55.707Z,99112.50
2023-02-27T20:01:25.785Z,99113.94
2023-02-27T20:03:53.169Z,99113.66
2023-02-27T20:06:24.434Z,99118.50
2023-02-27T20:08:56.162Z,99128.31
2023-02-27T20:11:25.166Z,99128.06
2023-02-27T20:13:52.201Z,99127.81
2023-02-27T20:16:23.084Z,99127.19
2023-02-27T20:19:01.613Z,99119.91
2023-02-27T20:21:30.045Z,99126.34
2023-02-27T20:23:59.462Z,99129.84
2023-02-27T20:26:28.507Z,99135.53
2023-02-27T20:28:59.716Z,99125.69
2023-02-27T20:31:29.537Z,99131.28
2023-02-27T20:33:59.116Z,99131.19
2023-02-27T20:36:25.931Z,99132.91
2023-02-27T20:38:52.761Z,99123.84
2023-02-27T20:41:21.737Z,99131.75
2023-02-27T20:43:52.580Z,99135.16
2023-02-27T20:46:24.553Z,99137.84
2023-02-27T20:48:53.167Z,99124.56
2023-02-27T20:51:24.684Z,99135.94
2023-02-27T20:53:55.695Z,99137.91
2023-02-27T20:56:34.800Z,99137.84
2023-02-27T20:59:02.575Z,99138.81
2023-02-27T21:01:30.824Z,99133.72
2023-02-27T21:03:59.804Z,99128.31
2023-02-27T21:06:29.884Z,99125.88
2023-02-27T21:08:57.303Z,99129.78
2023-02-27T21:11:33.325Z,99131.88
2023-02-27T21:14:05.965Z,99129.50
2023-02-27T21:16:33.129Z,99127.81
2023-02-27T21:19:03.916Z,99133.44
2023-02-27T21:21:32.735Z,99138.03
2023-02-27T21:24:00.614Z,99137.72
2023-02-27T21:26:35.411Z,99141.47
2023-02-27T21:29:07.023Z,99135.56
2023-02-27T21:31:35.485Z,99139.09
2023-02-27T21:34:05.841Z,99135.94
2023-02-27T21:36:42.654Z,99144.00
2023-02-27T21:39:14.644Z,99140.03
2023-02-27T21:41:42.122Z,99147.25
2023-02-27T21:44:12.491Z,99136.94
2023-02-27T21:46:40.189Z,99131.28
2023-02-27T21:49:06.941Z,99138.22
2023-02-27T21:51:40.448Z,99135.88
2023-02-27T21:54:10.952Z,99137.69
2023-02-27T21:56:39.683Z,99130.75
2023-02-27T21:59:07.869Z,99127.81
2023-02-27T22:01:35.954Z,99122.50
2023-02-27T22:04:03.983Z,99128.38
2023-02-27T22:06:33.088Z,99123.72
2023-02-27T22:09:03.752Z,99132.84
2023-02-27T22:11:32.740Z,99126.00
2023-02-27T22:14:00.577Z,99123.72
2023-02-27T22:16:27.902Z,99119.34
2023-02-27T22:18:55.426Z,99118.72
2023-02-27T22:21:25.580Z,99118.72
2023-02-27T22:23:52.782Z,99126.75
2023-02-27T22:26:26.122Z,99125.28
2023-02-27T22:28:59.120Z,99122.28
2023-02-27T22:31:28.847Z,99118.69
2023-02-27T22:34:02.509Z,99115.38
2023-02-27T22:36:31.522Z,99116.09
2023-02-27T22:39:02.362Z,99120.09
2023-02-27T22:41:36.842Z,99114.59
2023-02-27T22:44:04.544Z,99124.63
2023-02-27T22:46:34.462Z,99113.19
2023-02-27T22:49:04.852Z,99124.66
2023-02-27T22:51:32.696Z,99122.22
2023-02-27T22:54:03.123Z,99117.53
2023-02-27T22:56:31.410Z,99116.34
2023-02-27T22:59:03.576Z,99112.91
2023-02-27T23:01:32.945Z,99111.78
2023-02-27T23:04:09.035Z,99117.13
2023-02-27T23:06:39.498Z,99115.13
2023-02-27T23:09:08.665Z,99110.97
2023-02-27T23:11:35.491Z,99121.94
2023-02-27T23:14:02.423Z,99112.97
2023-02-27T23:16:29.161Z,99120.03
2023-02-27T23:18:58.621Z,99124.72
2023-02-27T23:21:34.546Z,99117.19
2023-02-27T23:24:07.037Z,99122.50
2023-02-27T23:26:39.612Z,99129.63
2023-02-27T23:29:07.123Z,99121.22
2023-02-27T23:31:35.795Z,99127.97
2023-02-27T23:34:05.837Z,99116.63
2023-02-27T23:36:34.273Z,99132.75
2023-02-27T23:39:02.947Z,99132.25
2023-02-27T23:41:30.912Z,99133.22
2023-02-27T23:44:16.840Z,99125.47
2023-02-27T23:46:44.587Z,99124.66
2023-02-27T23:49:11.666Z,99129.59
2023-02-27T23:51:38.718Z,99135.09
2023-02-27T23:54:05.625Z,99126.53
2023-02-27T23:56:32.644Z,99123.34
2023-02-27T23:59:08.679Z,99134.75
